sensor_id;sensor_type;location;lat;lon;timestamp;pressure;altitude;pressure_sealevel;temperature;humidity
2397;BME280;1209;48.410;9.054;2024-03-08T00:01:43;96015.94;;;3.83;100.00
2397;BME280;1209;48.410;9.054;2024-03-08T00:04:10;96016.75;;;3.64;100.00
2397;BME280;1209;48.410;9.054;2024-03-08T00:06:35;96013.78;;;3.59;100.00
2397;BME280;1209;48.410;9.054;2024-03-08T00:09:00;96009.00;;;3.74;100.00
2397;BME280;1209;48.410;9.054;2024-03-08T00:11:26;96004.25;;;3.79;100.00
2397;BME280;1209;48.410;9.054;2024-03-08T00:13:52;96005.34;;;3.57;100.00
2397;BME280;1209;48.410;9.054;2024-03-08T00:16:18;96006.44;;;3.64;100.00
2397;BME280;1209;48.410;9.054;2024-03-08T00:18:45;96000.63;;;3.53;100.00
2397;BME280;1209;48.410;9.054;2024-03-08T00:21:10;96009.16;;;3.63;100.00
2397;BME280;1209;48.410;9.054;2024-03-08T00:23:37;96002.63;;;3.59;100.00
2397;BME280;1209;48.410;9.054;2024-03-08T00:26:02;96001.81;;;3.68;100.00
2397;BME280;1209;48.410;9.054;2024-03-08T00:28:29;96010.09;;;3.81;100.00
2397;BME280;1209;48.410;9.054;2024-03-08T00:30:54;95999.91;;;3.79;100.00
2397;BME280;1209;48.410;9.054;2024-03-08T00:33:20;96000.56;;;3.72;100.00
2397;BME280;1209;48.410;9.054;2024-03-08T00:35:45;95995.81;;;3.77;100.00
2397;BME280;1209;48.410;9.054;2024-03-08T00:38:10;95993.16;;;3.50;100.00
2397;BME280;1209;48.410;9.054;2024-03-08T00:40:35;95996.91;;;3.74;100.00
2397;BME280;1209;48.410;9.054;2024-03-08T00:43:01;95991.94;;;3.44;100.00
2397;BME280;1209;48.410;9.054;2024-03-08T00:45:28;95985.00;;;3.44;100.00
2397;BME280;1209;48.410;9.054;2024-03-08T00:47:54;95987.28;;;3.57;100.00
2397;BME280;1209;48.410;9.054;2024-03-08T00:50:19;95989.19;;;3.65;100.00
2397;BME280;1209;48.410;9.054;2024-03-08T00:52:45;95986.19;;;3.60;100.00
2397;BME280;1209;48.410;9.054;2024-03-08T00:55:11;95990.13;;;3.64;100.00
2397;BME280;1209;48.410;9.054;2024-03-08T00:57:37;95984.88;;;3.46;100.00
2397;BME280;1209;48.410;9.054;2024-03-08T01:00:05;95982.44;;;3.44;100.00
2397;BME280;1209;48.410;9.054;2024-03-08T01:02:35;95979.84;;;3.44;100.00
2397;BME280;1209;48.410;9.054;2024-03-08T01:05:01;95980.38;;;3.48;100.00
2397;BME280;1209;48.410;9.054;2024-03-08T01:07:26;95980.09;;;3.51;100.00
2397;BME280;1209;48.410;9.054;2024-03-08T01:09:51;95974.25;;;3.49;100.00
2397;BME280;1209;48.410;9.054;2024-03-08T01:12:17;95967.06;;;3.53;100.00
2397;BME280;1209;48.410;9.054;2024-03-08T01:14:42;95959.06;;;3.46;100.00
2397;BME280;1209;48.410;9.054;2024-03-08T01:17:07;95958.91;;;3.47;100.00
2397;BME280;1209;48.410;9.054;2024-03-08T01:19:34;95959.22;;;3.35;100.00
2397;BME280;1209;48.410;9.054;2024-03-08T01:22:00;95951.56;;;3.53;100.00
2397;BME280;1209;48.410;9.054;2024-03-08T01:24:25;95952.16;;;3.37;100.00
2397;BME280;1209;48.410;9.054;2024-03-08T01:26:50;95947.50;;;3.31;100.00
2397;BME280;1209;48.410;9.054;2024-03-08T01:29:15;95957.31;;;3.37;100.00
2397;BME280;1209;48.410;9.054;2024-03-08T01:31:41;95949.56;;;3.37;100.00
2397;BME280;1209;48.410;9.054;2024-03-08T01:34:06;95930.94;;;3.24;100.00
2397;BME280;1209;48.410;9.054;2024-03-08T01:36:31;95937.75;;;3.15;100.00
2397;BME280;1209;48.410;9.054;2024-03-08T01:38:56;95942.25;;;3.13;100.00
2397;BME280;1209;48.410;9.054;2024-03-08T01:41:22;95929.88;;;3.07;100.00
2397;BME280;1209;48.410;9.054;2024-03-08T01:43:47;95935.03;;;3.26;100.00
2397;BME280;1209;48.410;9.054;2024-03-08T01:46:16;95927.56;;;3.23;100.00
2397;BME280;1209;48.410;9.054;2024-03-08T01:48:43;95921.34;;;3.06;100.00
2397;BME280;1209;48.410;9.054;2024-03-08T01:51:09;95918.50;;;3.00;100.00
2397;BME280;1209;48.410;9.054;2024-03-08T01:53:35;95915.78;;;2.92;100.00
2397;BME280;1209;48.410;9.054;2024-03-08T01:56:01;95912.13;;;2.94;100.00
2397;BME280;1209;48.410;9.054;2024-03-08T01:58:28;95910.91;;;2.89;100.00
2397;BME280;1209;48.410;9.054;2024-03-08T02:00:54;95901.81;;;2.94;100.00
2397;BME280;1209;48.410;9.054;2024-03-08T02:03:21;95902.06;;;2.81;100.00
2397;BME280;1209;48.410;9.054;2024-03-08T02:05:47;95898.41;;;2.84;100.00
2397;BME280;1209;48.410;9.054;2024-03-08T02:08:13;95896.78;;;2.93;100.00
2397;BME280;1209;48.410;9.054;2024-03-08T02:10:40;95892.84;;;2.89;100.00
2397;BME280;1209;48.410;9.054;2024-03-08T02:13:07;95891.88;;;2.70;100.00
2397;BME280;1209;48.410;9.054;2024-03-08T02:18:20;95887.16;;;2.85;100.00
2397;BME280;1209;48.410;9.054;2024-03-08T02:20:47;95887.53;;;2.80;100.00
2397;BME280;1209;48.410;9.054;2024-03-08T02:23:13;95891.63;;;3.02;100.00
2397;BME280;1209;48.410;9.054;2024-03-08T02:25:39;95878.47;;;2.86;100.00
2397;BME280;1209;48.410;9.054;2024-03-08T02:28:04;95880.47;;;2.82;100.00
2397;BME280;1209;48.410;9.054;2024-03-08T02:30:30;95885.09;;;3.08;100.00
2397;BME280;1209;48.410;9.054;2024-03-08T02:32:55;95876.25;;;3.10;100.00
2397;BME280;1209;48.410;9.054;2024-03-08T02:35:21;95881.16;;;3.13;100.00
2397;BME280;1209;48.410;9.054;2024-03-08T02:37:46;95878.19;;;2.89;100.00
2397;BME280;1209;48.410;9.054;2024-03-08T02:40:13;95889.16;;;2.72;100.00
2397;BME280;1209;48.410;9.054;2024-03-08T02:42:38;95886.56;;;3.10;100.00
2397;BME280;1209;48.410;9.054;2024-03-08T02:45:04;95885.47;;;3.23;100.00
2397;BME280;1209;48.410;9.054;2024-03-08T02:47:31;95879.91;;;3.17;100.00
2397;BME280;1209;48.410;9.054;2024-03-08T02:49:56;95869.22;;;3.03;100.00
2397;BME280;1209;48.410;9.054;2024-03-08T02:52:21;95875.59;;;3.08;100.00
2397;BME280;1209;48.410;9.054;2024-03-08T02:54:48;95862.41;;;3.11;100.00
2397;BME280;1209;48.410;9.054;2024-03-08T02:57:13;95867.00;;;3.27;100.00
2397;BME280;1209;48.410;9.054;2024-03-08T02:59:39;95859.94;;;3.20;100.00
2397;BME280;1209;48.410;9.054;2024-03-08T03:02:05;95859.81;;;3.21;100.00
2397;BME280;1209;48.410;9.054;2024-03-08T03:04:31;95856.56;;;3.19;100.00
2397;BME280;1209;48.410;9.054;2024-03-08T03:06:58;95859.28;;;3.17;100.00
2397;BME280;1209;48.410;9.054;2024-03-08T03:09:23;95861.09;;;2.88;100.00
2397;BME280;1209;48.410;9.054;2024-03-08T03:11:52;95852.00;;;2.94;100.00
2397;BME280;1209;48.410;9.054;2024-03-08T03:14:17;95851.16;;;3.12;100.00
2397;BME280;1209;48.410;9.054;2024-03-08T03:16:44;95840.56;;;3.06;100.00
2397;BME280;1209;48.410;9.054;2024-03-08T03:19:11;95846.25;;;3.09;100.00
2397;BME280;1209;48.410;9.054;2024-03-08T03:21:36;95844.34;;;3.11;100.00
2397;BME280;1209;48.410;9.054;2024-03-08T03:24:03;95843.25;;;3.24;100.00
2397;BME280;1209;48.410;9.054;2024-03-08T03:26:29;95841.78;;;3.11;100.00
2397;BME280;1209;48.410;9.054;2024-03-08T03:28:56;95842.34;;;3.05;100.00
2397;BME280;1209;48.410;9.054;2024-03-08T03:31:22;95840.47;;;2.88;100.00
2397;BME280;1209;48.410;9.054;2024-03-08T03:33:49;95833.81;;;2.86;100.00
2397;BME280;1209;48.410;9.054;2024-03-08T03:36:16;95829.44;;;3.05;100.00
2397;BME280;1209;48.410;9.054;2024-03-08T03:38:43;95833.94;;;3.03;100.00
2397;BME280;1209;48.410;9.054;2024-03-08T03:41:08;95836.81;;;2.91;100.00
2397;BME280;1209;48.410;9.054;2024-03-08T03:43:36;95828.91;;;3.02;100.00
2397;BME280;1209;48.410;9.054;2024-03-08T03:46:07;95829.88;;;2.91;100.00
2397;BME280;1209;48.410;9.054;2024-03-08T03:48:32;95830.81;;;2.80;100.00
2397;BME280;1209;48.410;9.054;2024-03-08T03:50:57;95816.16;;;2.81;100.00
2397;BME280;1209;48.410;9.054;2024-03-08T03:53:23;95817.78;;;2.82;100.00
2397;BME280;1209;48.410;9.054;2024-03-08T03:55:51;95817.50;;;3.04;100.00
2397;BME280;1209;48.410;9.054;2024-03-08T03:58:16;95822.94;;;3.01;100.00
2397;BME280;1209;48.410;9.054;2024-03-08T04:00:47;95815.06;;;3.03;100.00
2397;BME280;1209;48.410;9.054;2024-03-08T04:03:12;95824.84;;;2.99;100.00
2397;BME280;1209;48.410;9.054;2024-03-08T04:05:38;95819.44;;;2.93;100.00
2397;BME280;1209;48.410;9.054;2024-03-08T04:08:04;95817.00;;;2.72;100.00
2397;BME280;1209;48.410;9.054;2024-03-08T04:10:29;95824.03;;;2.79;100.00
2397;BME280;1209;48.410;9.054;2024-03-08T04:12:55;95812.38;;;2.75;100.00
2397;BME280;1209;48.410;9.054;2024-03-08T04:15:21;95815.38;;;2.71;100.00
2397;BME280;1209;48.410;9.054;2024-03-08T04:17:48;95824.31;;;2.86;100.00
2397;BME280;1209;48.410;9.054;2024-03-08T04:20:13;95827.03;;;2.75;100.00
2397;BME280;1209;48.410;9.054;2024-03-08T04:22:40;95822.00;;;2.93;100.00
2397;BME280;1209;48.410;9.054;2024-03-08T04:25:06;95818.63;;;2.92;100.00
2397;BME280;1209;48.410;9.054;2024-03-08T04:27:32;95818.63;;;2.92;100.00
2397;BME280;1209;48.410;9.054;2024-03-08T04:29:58;95813.34;;;2.84;100.00
2397;BME280;1209;48.410;9.054;2024-03-08T04:32:24;95817.66;;;2.83;100.00
2397;BME280;1209;48.410;9.054;2024-03-08T04:34:50;95806.69;;;2.72;100.00
2397;BME280;1209;48.410;9.054;2024-03-08T04:37:15;95808.84;;;2.76;100.00
2397;BME280;1209;48.410;9.054;2024-03-08T04:39:43;95801.91;;;2.96;100.00
2397;BME280;1209;48.410;9.054;2024-03-08T04:42:09;95791.50;;;2.69;100.00
2397;BME280;1209;48.410;9.054;2024-03-08T04:44:38;95800.44;;;2.74;100.00
2397;BME280;1209;48.410;9.054;2024-03-08T04:47:04;95790.25;;;2.82;100.00
2397;BME280;1209;48.410;9.054;2024-03-08T04:49:33;95786.84;;;2.82;100.00
2397;BME280;1209;48.410;9.054;2024-03-08T04:52:02;95789.59;;;2.71;100.00
2397;BME280;1209;48.410;9.054;2024-03-08T04:54:28;95788.22;;;2.86;100.00
2397;BME280;1209;48.410;9.054;2024-03-08T04:56:53;95783.09;;;2.67;100.00
2397;BME280;1209;48.410;9.054;2024-03-08T04:59:19;95790.94;;;2.84;100.00
2397;BME280;1209;48.410;9.054;2024-03-08T05:01:44;95784.69;;;2.97;100.00
2397;BME280;1209;48.410;9.054;2024-03-08T05:04:09;95787.41;;;2.86;100.00
2397;BME280;1209;48.410;9.054;2024-03-08T05:06:35;95788.09;;;2.68;100.00
2397;BME280;1209;48.410;9.054;2024-03-08T05:09:01;95786.84;;;2.82;100.00
2397;BME280;1209;48.410;9.054;2024-03-08T05:11:40;95781.03;;;2.70;100.00
2397;BME280;1209;48.410;9.054;2024-03-08T05:14:05;95780.91;;;2.72;100.00
2397;BME280;1209;48.410;9.054;2024-03-08T05:16:30;95777.94;;;2.67;100.00
2397;BME280;1209;48.410;9.054;2024-03-08T05:18:55;95780.94;;;2.62;100.00
2397;BME280;1209;48.410;9.054;2024-03-08T05:21:22;95784.72;;;2.68;100.00
2397;BME280;1209;48.410;9.054;2024-03-08T05:23:48;95784.13;;;2.83;100.00
2397;BME280;1209;48.410;9.054;2024-03-08T05:26:15;95789.56;;;2.90;100.00
2397;BME280;1209;48.410;9.054;2024-03-08T05:28:40;95779.50;;;2.97;100.00
2397;BME280;1209;48.410;9.054;2024-03-08T05:31:06;95789.72;;;2.89;100.00
2397;BME280;1209;48.410;9.054;2024-03-08T05:33:32;95785.78;;;2.75;100.00
2397;BME280;1209;48.410;9.054;2024-03-08T05:35:59;95783.25;;;2.46;100.00
2397;BME280;1209;48.410;9.054;2024-03-08T05:38:25;95778.50;;;2.41;100.00
2397;BME280;1209;48.410;9.054;2024-03-08T05:40:51;95781.19;;;2.59;100.00
2397;BME280;1209;48.410;9.054;2024-03-08T05:43:16;95782.16;;;2.58;100.00
2397;BME280;1209;48.410;9.054;2024-03-08T05:45:45;95778.88;;;2.66;100.00
2397;BME280;1209;48.410;9.054;2024-03-08T05:48:10;95779.06;;;2.45;100.00
2397;BME280;1209;48.410;9.054;2024-03-08T05:50:37;95783.53;;;2.43;100.00
2397;BME280;1209;48.410;9.054;2024-03-08T05:53:03;95785.28;;;2.52;100.00
2397;BME280;1209;48.410;9.054;2024-03-08T05:55:32;95777.00;;;2.48;100.00
2397;BME280;1209;48.410;9.054;2024-03-08T05:58:00;95783.47;;;2.72;100.00
2397;BME280;1209;48.410;9.054;2024-03-08T06:00:26;95774.00;;;2.63;100.00
2397;BME280;1209;48.410;9.054;2024-03-08T06:02:51;95777.13;;;2.66;100.00
2397;BME280;1209;48.410;9.054;2024-03-08T06:05:16;95769.00;;;2.61;100.00
2397;BME280;1209;48.410;9.054;2024-03-08T06:07:42;95775.63;;;2.64;100.00
2397;BME280;1209;48.410;9.054;2024-03-08T06:10:09;95767.06;;;2.73;100.00
2397;BME280;1209;48.410;9.054;2024-03-08T06:12:38;95764.94;;;2.59;100.00
2397;BME280;1209;48.410;9.054;2024-03-08T06:15:09;95772.75;;;2.76;100.00
2397;BME280;1209;48.410;9.054;2024-03-08T06:17:36;95772.63;;;2.68;100.00
2397;BME280;1209;48.410;9.054;2024-03-08T06:20:02;95774.03;;;2.53;100.00
2397;BME280;1209;48.410;9.054;2024-03-08T06:22:28;95774.94;;;2.71;100.00
2397;BME280;1209;48.410;9.054;2024-03-08T06:24:55;95765.91;;;2.48;100.00
2397;BME280;1209;48.410;9.054;2024-03-08T06:27:21;95774.72;;;2.45;100.00
2397;BME280;1209;48.410;9.054;2024-03-08T06:29:46;95766.56;;;2.50;100.00
2397;BME280;1209;48.410;9.054;2024-03-08T06:32:14;95771.31;;;2.55;100.00
2397;BME280;1209;48.410;9.054;2024-03-08T06:34:41;95774.91;;;2.81;100.00
2397;BME280;1209;48.410;9.054;2024-03-08T06:37:06;95777.63;;;2.89;100.00
2397;BME280;1209;48.410;9.054;2024-03-08T06:39:31;95771.13;;;2.85;100.00
2397;BME280;1209;48.410;9.054;2024-03-08T06:41:57;95769.41;;;2.57;100.00
2397;BME280;1209;48.410;9.054;2024-03-08T06:44:23;95773.59;;;2.67;100.00
2397;BME280;1209;48.410;9.054;2024-03-08T06:46:48;95777.66;;;2.70;100.00
2397;BME280;1209;48.410;9.054;2024-03-08T06:49:14;95773.16;;;2.72;100.00
2397;BME280;1209;48.410;9.054;2024-03-08T06:51:40;95769.38;;;2.76;100.00
2397;BME280;1209;48.410;9.054;2024-03-08T06:54:06;95772.25;;;2.53;100.00
2397;BME280;1209;48.410;9.054;2024-03-08T06:56:34;95784.03;;;2.66;100.00
2397;BME280;1209;48.410;9.054;2024-03-08T06:58:59;95779.16;;;2.63;100.00
2397;BME280;1209;48.410;9.054;2024-03-08T07:01:25;95776.84;;;2.69;100.00
2397;BME280;1209;48.410;9.054;2024-03-08T07:03:50;95767.78;;;2.56;100.00
2397;BME280;1209;48.410;9.054;2024-03-08T07:06:17;95777.28;;;2.55;100.00
2397;BME280;1209;48.410;9.054;2024-03-08T07:08:44;95766.00;;;2.56;100.00
2397;BME280;1209;48.410;9.054;2024-03-08T07:11:11;95774.44;;;2.48;100.00
2397;BME280;1209;48.410;9.054;2024-03-08T07:13:37;95765.88;;;2.58;100.00
2397;BME280;1209;48.410;9.054;2024-03-08T07:16:04;95762.38;;;2.39;100.00
2397;BME280;1209;48.410;9.054;2024-03-08T07:18:29;95765.88;;;2.58;100.00
2397;BME280;1209;48.410;9.054;2024-03-08T07:20:55;95758.56;;;2.53;100.00
2397;BME280;1209;48.410;9.054;2024-03-08T07:23:20;95761.13;;;2.53;100.00
2397;BME280;1209;48.410;9.054;2024-03-08T07:26:15;95756.78;;;2.63;100.00
2397;BME280;1209;48.410;9.054;2024-03-08T07:28:41;95764.13;;;2.48;100.00
2397;BME280;1209;48.410;9.054;2024-03-08T07:31:06;95764.94;;;2.59;100.00
2397;BME280;1209;48.410;9.054;2024-03-08T07:33:46;95761.69;;;2.47;100.00
2397;BME280;1209;48.410;9.054;2024-03-08T07:36:11;95762.75;;;2.35;100.00
2397;BME280;1209;48.410;9.054;2024-03-08T07:38:37;95760.47;;;2.51;100.00
2397;BME280;1209;48.410;9.054;2024-03-08T07:41:02;95763.97;;;2.60;100.00
2397;BME280;1209;48.410;9.054;2024-03-08T07:43:27;95750.03;;;2.43;100.00
2397;BME280;1209;48.410;9.054;2024-03-08T07:45:53;95745.00;;;2.51;100.00
2397;BME280;1209;48.410;9.054;2024-03-08T07:48:20;95751.91;;;2.60;100.00
2397;BME280;1209;48.410;9.054;2024-03-08T07:50:46;95755.16;;;2.62;100.00
2397;BME280;1209;48.410;9.054;2024-03-08T07:53:11;95752.59;;;2.52;100.00
2397;BME280;1209;48.410;9.054;2024-03-08T07:55:37;95755.13;;;2.72;100.00
2397;BME280;1209;48.410;9.054;2024-03-08T07:58:02;95746.41;;;2.92;100.00
2397;BME280;1209;48.410;9.054;2024-03-08T08:00:29;95750.38;;;2.77;100.00
2397;BME280;1209;48.410;9.054;2024-03-08T08:02:56;95756.16;;;2.98;100.00
2397;BME280;1209;48.410;9.054;2024-03-08T08:05:21;95747.56;;;2.61;100.00
2397;BME280;1209;48.410;9.054;2024-03-08T08:07:47;95744.81;;;2.72;100.00
2397;BME280;1209;48.410;9.054;2024-03-08T08:10:13;95745.91;;;2.69;100.00
2397;BME280;1209;48.410;9.054;2024-03-08T08:12:48;95745.84;;;2.98;100.00
2397;BME280;1209;48.410;9.054;2024-03-08T08:15:13;95754.81;;;2.94;100.00
2397;BME280;1209;48.410;9.054;2024-03-08T08:17:44;95751.63;;;2.63;100.00
2397;BME280;1209;48.410;9.054;2024-03-08T08:20:11;95745.63;;;2.72;100.00
2397;BME280;1209;48.410;9.054;2024-03-08T08:22:37;95740.50;;;2.63;100.00
2397;BME280;1209;48.410;9.054;2024-03-08T08:25:04;95742.34;;;2.80;100.00
2397;BME280;1209;48.410;9.054;2024-03-08T08:27:29;95744.94;;;2.90;100.00
2397;BME280;1209;48.410;9.054;2024-03-08T08:29:55;95738.19;;;2.60;100.00
2397;BME280;1209;48.410;9.054;2024-03-08T08:32:21;95740.78;;;2.60;100.00
2397;BME280;1209;48.410;9.054;2024-03-08T08:34:46;95737.47;;;2.87;100.00
2397;BME280;1209;48.410;9.054;2024-03-08T08:37:11;95743.72;;;2.84;100.00
2397;BME280;1209;48.410;9.054;2024-03-08T08:39:37;95746.31;;;2.84;100.00
2397;BME280;1209;48.410;9.054;2024-03-08T08:42:03;95736.81;;;2.75;100.00
2397;BME280;1209;48.410;9.054;2024-03-08T08:44:28;95733.81;;;2.79;100.00
2397;BME280;1209;48.410;9.054;2024-03-08T08:46:54;95736.91;;;2.83;100.00
2397;BME280;1209;48.410;9.054;2024-03-08T08:49:19;95728.31;;;3.02;100.00
2397;BME280;1209;48.410;9.054;2024-03-08T08:51:49;95726.56;;;3.02;100.00
2397;BME280;1209;48.410;9.054;2024-03-08T08:54:16;95728.19;;;3.03;100.00
2397;BME280;1209;48.410;9.054;2024-03-08T08:56:42;95720.84;;;3.08;100.00
2397;BME280;1209;48.410;9.054;2024-03-08T08:59:09;95715.56;;;3.37;100.00
2397;BME280;1209;48.410;9.054;2024-03-08T09:01:34;95716.09;;;3.59;100.00
2397;BME280;1209;48.410;9.054;2024-03-08T09:03:59;95720.66;;;3.47;100.00
2397;BME280;1209;48.410;9.054;2024-03-08T09:06:25;95722.31;;;3.66;100.00
2397;BME280;1209;48.410;9.054;2024-03-08T09:08:50;95718.97;;;3.56;100.00
2397;BME280;1209;48.410;9.054;2024-03-08T09:11:16;95717.88;;;3.58;100.00
2397;BME280;1209;48.410;9.054;2024-03-08T09:13:44;95710.78;;;3.60;100.00
2397;BME280;1209;48.410;9.054;2024-03-08T09:16:10;95709.19;;;3.04;100.00
2397;BME280;1209;48.410;9.054;2024-03-08T09:18:36;95712.25;;;3.17;100.00
2397;BME280;1209;48.410;9.054;2024-03-08T09:21:01;95704.59;;;3.53;100.00
2397;BME280;1209;48.410;9.054;2024-03-08T09:23:26;95710.28;;;3.57;100.00
2397;BME280;1209;48.410;9.054;2024-03-08T09:25:56;95704.50;;;3.45;100.00
2397;BME280;1209;48.410;9.054;2024-03-08T09:28:22;95706.50;;;3.24;100.00
2397;BME280;1209;48.410;9.054;2024-03-08T09:30:48;95697.63;;;3.36;100.00
2397;BME280;1209;48.410;9.054;2024-03-08T09:33:13;95692.34;;;3.55;100.00
2397;BME280;1209;48.410;9.054;2024-03-08T09:35:42;95698.44;;;3.36;100.00
2397;BME280;1209;48.410;9.054;2024-03-08T09:38:07;95699.81;;;3.31;100.00
2397;BME280;1209;48.410;9.054;2024-03-08T09:40:38;95692.66;;;3.52;100.00
2397;BME280;1209;48.410;9.054;2024-03-08T09:43:03;95693.94;;;3.84;100.00
2397;BME280;1209;48.410;9.054;2024-03-08T09:45:31;95693.63;;;3.69;100.00
2397;BME280;1209;48.410;9.054;2024-03-08T09:47:59;95689.94;;;3.71;100.00
2397;BME280;1209;48.410;9.054;2024-03-08T09:50:26;95683.38;;;3.77;100.00
2397;BME280;1209;48.410;9.054;2024-03-08T09:52:53;95687.66;;;4.04;100.00
2397;BME280;1209;48.410;9.054;2024-03-08T09:55:22;95684.25;;;4.21;100.00
2397;BME280;1209;48.410;9.054;2024-03-08T09:57:48;95686.19;;;3.84;100.00
2397;BME280;1209;48.410;9.054;2024-03-08T10:00:33;95679.81;;;4.31;100.00
2397;BME280;1209;48.410;9.054;2024-03-08T10:03:02;95674.75;;;4.48;100.00
2397;BME280;1209;48.410;9.054;2024-03-08T10:05:28;95679.97;;;4.56;100.00
2397;BME280;1209;48.410;9.054;2024-03-08T10:07:53;95680.63;;;4.32;100.00
2397;BME280;1209;48.410;9.054;2024-03-08T10:10:19;95669.78;;;4.28;100.00
2397;BME280;1209;48.410;9.054;2024-03-08T10:12:45;95668.97;;;4.54;100.00
2397;BME280;1209;48.410;9.054;2024-03-08T10:15:11;95660.97;;;4.65;100.00
2397;BME280;1209;48.410;9.054;2024-03-08T10:17:38;95648.66;;;4.59;100.00
2397;BME280;1209;48.410;9.054;2024-03-08T10:20:13;95658.13;;;4.50;100.00
2397;BME280;1209;48.410;9.054;2024-03-08T10:22:40;95652.84;;;4.60;100.00
2397;BME280;1209;48.410;9.054;2024-03-08T10:25:08;95649.78;;;4.90;100.00
2397;BME280;1209;48.410;9.054;2024-03-08T10:27:35;95647.25;;;4.98;100.00
2397;BME280;1209;48.410;9.054;2024-03-08T10:30:01;95646.06;;;4.85;100.00
2397;BME280;1209;48.410;9.054;2024-03-08T10:32:26;95638.13;;;5.20;100.00
2397;BME280;1209;48.410;9.054;2024-03-08T10:34:53;95641.94;;;5.08;100.00
2397;BME280;1209;48.410;9.054;2024-03-08T10:37:21;95633.59;;;5.22;100.00
2397;BME280;1209;48.410;9.054;2024-03-08T10:40:06;95632.28;;;5.18;100.00
2397;BME280;1209;48.410;9.054;2024-03-08T10:42:45;95637.19;;;5.37;100.00
2397;BME280;1209;48.410;9.054;2024-03-08T10:47:49;95630.09;;;4.97;100.00
2397;BME280;1209;48.410;9.054;2024-03-08T10:50:21;95634.63;;;5.54;100.00
2397;BME280;1209;48.410;9.054;2024-03-08T10:52:50;95627.66;;;5.46;100.00
2397;BME280;1209;48.410;9.054;2024-03-08T10:55:17;95633.44;;;6.31;100.00
2397;BME280;1209;48.410;9.054;2024-03-08T10:57:43;95630.28;;;6.76;100.00
2397;BME280;1209;48.410;9.054;2024-03-08T11:00:09;95626.53;;;7.57;100.00
2397;BME280;1209;48.410;9.054;2024-03-08T11:02:36;95629.00;;;7.96;100.00
2397;BME280;1209;48.410;9.054;2024-03-08T11:05:09;95628.47;;;7.24;100.00
2397;BME280;1209;48.410;9.054;2024-03-08T11:07:41;95628.16;;;7.58;100.00
2397;BME280;1209;48.410;9.054;2024-03-08T11:10:19;95624.34;;;7.69;100.00
2397;BME280;1209;48.410;9.054;2024-03-08T11:12:45;95624.88;;;7.33;100.00
2397;BME280;1209;48.410;9.054;2024-03-08T11:15:12;95619.16;;;8.29;100.00
2397;BME280;1209;48.410;9.054;2024-03-08T11:20:10;95619.34;;;6.97;100.00
2397;BME280;1209;48.410;9.054;2024-03-08T11:22:41;95614.97;;;6.89;100.00
2397;BME280;1209;48.410;9.054;2024-03-08T11:25:30;95612.41;;;6.81;100.00
2397;BME280;1209;48.410;9.054;2024-03-08T11:28:16;95600.06;;;6.91;100.00
2397;BME280;1209;48.410;9.054;2024-03-08T11:31:25;95601.63;;;6.53;100.00
2397;BME280;1209;48.410;9.054;2024-03-08T11:33:34;95596.97;;;7.58;100.00
2397;BME280;1209;48.410;9.054;2024-03-08T11:36:20;95596.56;;;7.07;100.00
2397;BME280;1209;48.410;9.054;2024-03-08T11:38:47;95589.81;;;6.43;100.00
2397;BME280;1209;48.410;9.054;2024-03-08T11:41:22;95595.56;;;6.77;100.00
2397;BME280;1209;48.410;9.054;2024-03-08T11:43:49;95589.53;;;6.29;100.00
2397;BME280;1209;48.410;9.054;2024-03-08T11:46:16;95587.50;;;7.11;100.00
2397;BME280;1209;48.410;9.054;2024-03-08T11:48:43;95576.75;;;7.68;100.00
2397;BME280;1209;48.410;9.054;2024-03-08T11:51:13;95579.34;;;7.45;100.00
2397;BME280;1209;48.410;9.054;2024-03-08T11:53:39;95565.03;;;7.49;100.00
2397;BME280;1209;48.410;9.054;2024-03-08T11:56:09;95574.94;;;8.67;100.00
2397;BME280;1209;48.410;9.054;2024-03-08T11:58:35;95567.66;;;9.06;100.00
2397;BME280;1209;48.410;9.054;2024-03-08T12:01:05;95563.44;;;8.76;100.00
2397;BME280;1209;48.410;9.054;2024-03-08T12:03:40;95568.34;;;8.41;100.00
2397;BME280;1209;48.410;9.054;2024-03-08T12:06:10;95561.19;;;8.73;100.00
2397;BME280;1209;48.410;9.054;2024-03-08T12:08:36;95553.84;;;8.62;100.00
2397;BME280;1209;48.410;9.054;2024-03-08T12:11:05;95550.53;;;8.68;100.00
2397;BME280;1209;48.410;9.054;2024-03-08T12:13:32;95545.66;;;8.79;100.00
2397;BME280;1209;48.410;9.054;2024-03-08T12:16:00;95551.97;;;9.21;100.00
2397;BME280;1209;48.410;9.054;2024-03-08T12:18:26;95537.19;;;8.92;100.00
2397;BME280;1209;48.410;9.054;2024-03-08T12:21:04;95541.78;;;9.05;100.00
2397;BME280;1209;48.410;9.054;2024-03-08T12:23:30;95531.13;;;9.21;100.00
2397;BME280;1209;48.410;9.054;2024-03-08T12:25:56;95530.75;;;9.03;100.00
2397;BME280;1209;48.410;9.054;2024-03-08T12:28:22;95527.06;;;9.76;100.00
2397;BME280;1209;48.410;9.054;2024-03-08T12:30:49;95518.22;;;9.49;99.47
2397;BME280;1209;48.410;9.054;2024-03-08T12:33:16;95519.72;;;10.07;100.00
2397;BME280;1209;48.410;9.054;2024-03-08T12:35:50;95519.16;;;9.91;99.08
2397;BME280;1209;48.410;9.054;2024-03-08T12:38:15;95512.22;;;9.98;99.12
2397;BME280;1209;48.410;9.054;2024-03-08T12:40:41;95508.00;;;10.53;94.66
2397;BME280;1209;48.410;9.054;2024-03-08T12:43:07;95516.03;;;9.53;100.00
2397;BME280;1209;48.410;9.054;2024-03-08T12:45:32;95516.50;;;9.84;100.00
2397;BME280;1209;48.410;9.054;2024-03-08T12:47:58;95509.88;;;10.09;100.00
2397;BME280;1209;48.410;9.054;2024-03-08T12:50:25;95498.78;;;10.01;99.19
2397;BME280;1209;48.410;9.054;2024-03-08T12:52:51;95490.13;;;10.56;97.18
2397;BME280;1209;48.410;9.054;2024-03-08T12:55:18;95483.47;;;10.47;94.19
2397;BME280;1209;48.410;9.054;2024-03-08T12:57:43;95485.03;;;10.42;95.72
2397;BME280;1209;48.410;9.054;2024-03-08T13:00:09;95476.22;;;10.43;94.82
2397;BME280;1209;48.410;9.054;2024-03-08T13:02:46;95474.72;;;10.33;97.32
2397;BME280;1209;48.410;9.054;2024-03-08T13:05:11;95476.25;;;10.49;96.72
2397;BME280;1209;48.410;9.054;2024-03-08T13:07:39;95462.09;;;10.78;97.02
2397;BME280;1209;48.410;9.054;2024-03-08T13:10:06;95462.94;;;10.85;93.71
2397;BME280;1209;48.410;9.054;2024-03-08T13:12:32;95450.34;;;10.48;100.00
2397;BME280;1209;48.410;9.054;2024-03-08T13:14:57;95456.91;;;10.09;100.00
2397;BME280;1209;48.410;9.054;2024-03-08T13:17:23;95456.56;;;10.47;100.00
2397;BME280;1209;48.410;9.054;2024-03-08T13:19:48;95456.81;;;10.24;100.00
2397;BME280;1209;48.410;9.054;2024-03-08T13:22:14;95455.34;;;10.15;100.00
2397;BME280;1209;48.410;9.054;2024-03-08T13:24:42;95446.63;;;10.01;100.00
2397;BME280;1209;48.410;9.054;2024-03-08T13:27:08;95442.69;;;9.84;100.00
2397;BME280;1209;48.410;9.054;2024-03-08T13:29:48;95438.38;;;9.97;100.00